createdAt,value
2022-11-04T00:00:11.928Z,10.60
2022-11-04T00:02:38.717Z,10.60
2022-11-04T00:05:05.685Z,10.50
2022-11-04T00:08:01.493Z,10.50
2022-11-04T00:10:48.125Z,10.40
2022-11-04T00:13:14.806Z,10.40
2022-11-04T00:15:59.952Z,10.40
2022-11-04T00:18:26.655Z,10.30
2022-11-04T00:21:11.909Z,10.20
2022-11-04T00:23:57.360Z,10.30
2022-11-04T00:26:56.560Z,10.30
2022-11-04T00:29:23.211Z,10.30
2022-11-04T00:32:08.464Z,10.30
2022-11-04T00:34:35.119Z,10.40
2022-11-04T00:37:03.056Z,10.70
2022-11-04T00:39:30.007Z,10.90
2022-11-04T00:41:56.689Z,11.10
2022-11-04T00:44:23.383Z,11.00
2022-11-04T00:46:50.062Z,10.90
2022-11-04T00:49:16.708Z,10.80
2022-11-04T00:51:43.427Z,10.70
2022-11-04T00:54:10.162Z,10.70
2022-11-04T00:56:40.842Z,10.70
2022-11-04T00:59:10.389Z,10.70
2022-11-04T01:01:40.747Z,10.80
2022-11-04T01:04:07.458Z,10.80
2022-11-04T01:06:34.149Z,10.80
2022-11-04T01:09:04.241Z,10.70
2022-11-04T01:11:31.366Z,10.70
2022-11-04T01:13:58.881Z,10.70
2022-11-04T01:18:58.810Z,10.80
2022-11-04T01:21:25.514Z,10.90
2022-11-04T01:23:52.306Z,10.90
2022-11-04T01:26:24.703Z,11.00
2022-11-04T01:28:53.047Z,10.90
2022-11-04T01:31:22.330Z,10.70
2022-11-04T01:33:50.340Z,10.50
2022-11-04T01:36:17.630Z,10.30
2022-11-04T01:38:44.531Z,10.20
2022-11-04T01:41:27.923Z,10.10
2022-11-04T01:44:00.122Z,10.00
2022-11-04T01:46:38.061Z,10.00
2022-11-04T01:49:10.262Z,9.90
2022-11-04T01:51:40.527Z,9.90
2022-11-04T01:54:09.007Z,9.80
2022-11-04T01:56:37.137Z,9.80
2022-11-04T01:59:09.305Z,9.70
2022-11-04T02:01:36.183Z,9.60
2022-11-04T02:04:21.979Z,9.60
2022-11-04T02:06:50.782Z,9.50
2022-11-04T02:09:19.512Z,9.50
2022-11-04T02:12:04.658Z,9.40
2022-11-04T02:14:34.348Z,9.40
2022-11-04T02:17:09.901Z,9.40
2022-11-04T02:20:00.148Z,9.30
2022-11-04T02:22:29.808Z,9.30
2022-11-04T02:25:14.366Z,9.30
2022-11-04T02:27:55.140Z,9.30
2022-11-04T02:30:22.320Z,9.30
2022-11-04T02:33:10.897Z,9.20
2022-11-04T02:36:03.688Z,9.20
2022-11-04T02:39:00.107Z,9.20
2022-11-04T02:41:43.034Z,9.20
2022-11-04T02:44:19.526Z,9.20
2022-11-04T02:47:04.771Z,9.20
2022-11-04T02:49:43.395Z,9.20
2022-11-04T02:52:14.621Z,9.20
2022-11-04T02:54:49.812Z,9.20
2022-11-04T02:57:22.191Z,9.30
2022-11-04T02:59:56.328Z,9.20
2022-11-04T03:02:47.332Z,9.30
2022-11-04T03:05:19.367Z,9.20
2022-11-04T03:07:48.383Z,9.20
2022-11-04T03:10:40.428Z,9.20
2022-11-04T03:13:14.882Z,9.10
2022-11-04T03:15:58.867Z,9.10
2022-11-04T03:19:07.184Z,9.10
2022-11-04T03:21:38.990Z,9.10
2022-11-04T03:24:06.136Z,9.20
2022-11-04T03:27:00.913Z,9.10
2022-11-04T03:29:59.269Z,9.10
2022-11-04T03:32:41.601Z,9.10
2022-11-04T03:35:09.744Z,9.10
2022-11-04T03:37:36.541Z,9.00
2022-11-04T03:40:03.866Z,8.90
2022-11-04T03:42:32.162Z,8.80
2022-11-04T03:44:59.900Z,8.80
2022-11-04T03:47:30.083Z,8.80
2022-11-04T03:50:06.748Z,8.90
2022-11-04T03:52:34.203Z,8.80
2022-11-04T03:55:00.866Z,8.80
2022-11-04T03:57:46.265Z,8.80
2022-11-04T04:00:16.561Z,8.80
2022-11-04T04:03:06.435Z,8.80
2022-11-04T04:05:52.874Z,8.90
2022-11-04T04:08:39.412Z,8.90
2022-11-04T04:11:17.308Z,8.90
2022-11-04T04:13:55.655Z,8.90
2022-11-04T04:16:34.597Z,8.90
2022-11-04T04:19:09.583Z,9.00
2022-11-04T04:22:00.655Z,8.90
2022-11-04T04:24:54.855Z,8.90
2022-11-04T04:27:31.655Z,8.90
2022-11-04T04:30:13.565Z,8.80
2022-11-04T04:32:47.591Z,8.80
2022-11-04T04:35:33.678Z,8.80
2022-11-04T04:38:22.079Z,8.80
2022-11-04T04:41:23.583Z,8.80
2022-11-04T04:44:08.928Z,8.80
2022-11-04T04:46:37.862Z,8.80
2022-11-04T04:49:09.539Z,8.70
2022-11-04T04:51:40.604Z,8.70
2022-11-04T04:54:07.773Z,8.70
2022-11-04T04:56:34.530Z,8.70
2022-11-04T04:59:01.242Z,8.80
2022-11-04T05:01:28.208Z,8.70
2022-11-04T05:03:54.998Z,8.80
2022-11-04T05:06:21.691Z,8.80
2022-11-04T05:08:48.501Z,8.80
2022-11-04T05:11:15.203Z,8.80
2022-11-04T05:13:41.860Z,8.80
2022-11-04T05:16:10.730Z,8.80
2022-11-04T05:18:37.700Z,8.80
2022-11-04T05:21:10.819Z,8.70
2022-11-04T05:23:37.795Z,8.70
2022-11-04T05:26:05.113Z,8.70
2022-11-04T05:28:31.975Z,8.80
2022-11-04T05:31:03.665Z,8.80
2022-11-04T05:33:30.369Z,8.80
2022-11-04T05:36:09.970Z,8.80
2022-11-04T05:38:37.448Z,8.80
2022-11-04T05:41:05.224Z,8.70
2022-11-04T05:43:32.474Z,8.70
2022-11-04T05:46:00.275Z,8.70
2022-11-04T05:48:27.909Z,8.70
2022-11-04T05:50:55.340Z,8.60
2022-11-04T05:53:22.072Z,8.60
2022-11-04T05:55:48.964Z,8.60
2022-11-04T05:58:15.656Z,8.60
2022-11-04T06:00:43.066Z,8.60
2022-11-04T06:03:12.188Z,8.60
2022-11-04T06:05:42.116Z,8.60
2022-11-04T06:08:12.201Z,8.60
2022-11-04T06:10:39.062Z,8.60
2022-11-04T06:13:05.737Z,8.60
2022-11-04T06:15:32.400Z,8.60
2022-11-04T06:17:59.155Z,8.60
2022-11-04T06:20:25.817Z,8.60
2022-11-04T06:22:52.519Z,8.60
2022-11-04T06:25:19.229Z,8.60
2022-11-04T06:27:47.214Z,8.80
2022-11-04T06:30:13.991Z,8.60
2022-11-04T06:32:40.947Z,8.60
2022-11-04T06:35:08.979Z,8.60
2022-11-04T06:37:35.701Z,8.60
2022-11-04T06:40:02.376Z,8.60
2022-11-04T06:42:29.223Z,8.50
2022-11-04T06:44:55.886Z,8.40
2022-11-04T06:47:24.961Z,8.40
2022-11-04T06:49:51.872Z,8.30
2022-11-04T06:52:18.594Z,8.30
2022-11-04T06:54:46.304Z,8.30
2022-11-04T06:57:13.018Z,8.20
2022-11-04T06:59:39.944Z,8.20
2022-11-04T07:02:07.013Z,8.30
2022-11-04T07:04:33.804Z,8.20
2022-11-04T07:07:00.513Z,8.20
2022-11-04T07:09:27.339Z,8.20
2022-11-04T07:11:54.063Z,8.20
2022-11-04T07:14:20.740Z,8.20
2022-11-04T07:16:51.219Z,8.10
2022-11-04T07:19:17.931Z,8.10
2022-11-04T07:21:44.648Z,8.10
2022-11-04T07:24:11.436Z,8.10
2022-11-04T07:26:38.168Z,8.00
2022-11-04T07:29:06.602Z,7.90
2022-11-04T07:31:33.480Z,7.90
2022-11-04T07:34:00.355Z,7.90
2022-11-04T07:36:27.021Z,7.90
2022-11-04T07:38:54.445Z,7.80
2022-11-04T07:41:21.579Z,7.80
2022-11-04T07:43:52.475Z,7.80
2022-11-04T07:46:20.577Z,7.80
2022-11-04T07:48:47.755Z,7.70
2022-11-04T07:51:17.730Z,7.70
2022-11-04T07:53:44.626Z,7.70
2022-11-04T07:56:13.077Z,7.60
2022-11-04T07:58:40.612Z,7.60
2022-11-04T08:01:10.417Z,7.60
2022-11-04T08:03:37.303Z,7.50
2022-11-04T08:06:06.672Z,7.40
2022-11-04T08:08:34.012Z,7.30
2022-11-04T08:11:05.212Z,7.20
2022-11-04T08:13:33.940Z,7.20
2022-11-04T08:16:06.343Z,7.20
2022-11-04T08:18:34.061Z,7.20
2022-11-04T08:21:02.536Z,7.10
2022-11-04T08:23:29.652Z,7.10
2022-11-04T08:25:57.359Z,7.20
2022-11-04T08:28:24.615Z,7.10
2022-11-04T08:30:58.127Z,7.10
2022-11-04T08:33:26.181Z,7.10
2022-11-04T08:35:53.761Z,7.10
2022-11-04T08:38:20.761Z,7.10
2022-11-04T08:40:47.524Z,7.00
2022-11-04T08:43:14.211Z,7.00
2022-11-04T08:45:43.644Z,6.90
2022-11-04T08:48:11.448Z,6.90
2022-11-04T08:50:38.476Z,6.90
2022-11-04T08:53:05.485Z,6.90
2022-11-04T08:55:32.922Z,6.90
2022-11-04T08:58:00.937Z,7.00
2022-11-04T09:00:27.648Z,6.90
2022-11-04T09:02:55.583Z,6.90
2022-11-04T09:05:22.794Z,6.80
2022-11-04T09:07:49.652Z,6.80
2022-11-04T09:10:17.283Z,6.80
2022-11-04T09:12:44.914Z,6.80
2022-11-04T09:15:12.212Z,6.80
2022-11-04T09:17:38.808Z,6.70
2022-11-04T09:20:06.387Z,6.70
2022-11-04T09:22:33.216Z,6.70
2022-11-04T09:24:59.907Z,6.60
2022-11-04T09:27:26.562Z,6.60
2022-11-04T09:29:53.241Z,6.60
2022-11-04T09:32:19.925Z,6.60
2022-11-04T09:34:46.612Z,6.60
2022-11-04T09:37:13.303Z,6.60
2022-11-04T09:39:40.021Z,6.50
2022-11-04T09:42:33.483Z,6.50
2022-11-04T09:45:26.803Z,6.40
2022-11-04T09:48:00.141Z,6.50
2022-11-04T09:50:36.959Z,6.40
2022-11-04T09:53:26.865Z,6.40
2022-11-04T09:55:53.546Z,6.40
2022-11-04T09:58:20.338Z,6.30
2022-11-04T10:01:15.290Z,6.30
2022-11-04T10:03:48.416Z,6.30
2022-11-04T10:06:46.003Z,6.30
2022-11-04T10:09:24.900Z,6.30
2022-11-04T10:12:02.440Z,6.20
2022-11-04T10:18:45.448Z,6.20
2022-11-04T10:21:35.858Z,6.20
2022-11-04T10:24:20.831Z,6.10
2022-11-04T10:27:00.818Z,6.10
2022-11-04T10:29:43.516Z,6.00
2022-11-04T10:32:35.562Z,6.10
2022-11-04T10:35:07.135Z,6.00
2022-11-04T10:37:34.720Z,6.00
2022-11-04T10:40:20.119Z,6.00
2022-11-04T10:42:47.119Z,5.90
2022-11-04T10:45:14.477Z,5.90
2022-11-04T10:47:49.970Z,5.90
2022-11-04T10:50:30.564Z,5.90
2022-11-04T10:53:19.956Z,5.80
2022-11-04T10:56:13.801Z,5.70
2022-11-04T10:58:47.735Z,5.80
2022-11-04T11:01:23.804Z,5.70
2022-11-04T11:03:50.646Z,5.70
2022-11-04T11:06:31.172Z,5.60
2022-11-04T11:09:13.511Z,5.70
2022-11-04T11:11:48.976Z,5.60
2022-11-04T11:14:27.912Z,5.70
2022-11-04T11:16:56.112Z,5.50
2022-11-04T11:19:25.090Z,5.50
2022-11-04T11:21:55.092Z,5.70
2022-11-04T11:24:24.345Z,5.60
2022-11-04T11:26:56.543Z,5.60
2022-11-04T11:29:26.147Z,5.60
2022-11-04T11:31:55.000Z,5.60
2022-11-04T11:34:26.768Z,5.60
2022-11-04T11:36:56.061Z,5.70
2022-11-04T11:39:28.484Z,5.60
2022-11-04T11:42:04.738Z,5.60
2022-11-04T11:44:44.022Z,5.60
2022-11-04T11:47:37.908Z,5.50
2022-11-04T11:50:15.568Z,5.50
2022-11-04T11:52:43.462Z,5.40
2022-11-04T11:55:26.243Z,5.40
2022-11-04T12:01:24.101Z,5.40
2022-11-04T12:10:48.581Z,5.30
2022-11-04T12:13:14.489Z,5.30
2022-11-04T12:16:15.684Z,5.30
2022-11-04T12:19:11.941Z,5.30
2022-11-04T12:21:48.822Z,5.30
2022-11-04T12:24:24.402Z,5.30
2022-11-04T12:27:19.144Z,5.20
2022-11-04T12:29:58.410Z,5.20
2022-11-04T12:32:40.939Z,5.20
2022-11-04T12:35:13.535Z,5.20
2022-11-04T12:37:59.150Z,5.10
2022-11-04T12:40:29.522Z,5.00
2022-11-04T12:43:08.231Z,4.90
2022-11-04T12:45:56.056Z,5.00
2022-11-04T12:49:08.891Z,5.20
2022-11-04T12:52:06.826Z,5.30
2022-11-04T12:55:02.499Z,5.40
2022-11-04T12:57:56.281Z,5.30
2022-11-04T13:00:28.255Z,5.00
2022-11-04T13:03:01.749Z,5.00
2022-11-04T13:05:37.840Z,4.90
2022-11-04T13:08:14.357Z,4.90
2022-11-04T13:10:49.518Z,5.10
2022-11-04T13:13:20.863Z,5.20
2022-11-04T13:15:52.080Z,5.20
2022-11-04T13:18:21.359Z,5.20
2022-11-04T13:20:59.305Z,5.20
2022-11-04T13:23:57.208Z,5.20
2022-11-04T13:26:24.029Z,5.10
2022-11-04T13:29:04.402Z,5.00
2022-11-04T13:31:43.764Z,5.00
2022-11-04T13:34:28.513Z,4.90
2022-11-04T13:37:31.898Z,4.90
2022-11-04T13:40:06.117Z,4.90
2022-11-04T13:43:27.138Z,5.00
2022-11-04T13:45:56.030Z,5.00
2022-11-04T13:48:26.999Z,5.10
2022-11-04T13:51:05.895Z,5.10
2022-11-04T13:53:58.201Z,5.00
2022-11-04T13:56:34.514Z,4.90
2022-11-04T13:59:19.426Z,4.80
2022-11-04T14:01:46.573Z,4.60
2022-11-04T14:04:13.317Z,4.60
2022-11-04T14:06:57.345Z,4.60
2022-11-04T14:09:33.995Z,4.60
2022-11-04T14:12:18.630Z,4.50
2022-11-04T14:14:52.181Z,4.30
2022-11-04T14:17:34.158Z,4.20
2022-11-04T14:20:07.029Z,4.30
2022-11-04T14:22:44.724Z,4.20
2022-11-04T14:25:28.730Z,4.30
2022-11-04T14:28:10.803Z,4.40
2022-11-04T14:30:37.610Z,4.50
2022-11-04T14:33:08.479Z,4.50
2022-11-04T14:35:36.220Z,4.50
2022-11-04T14:38:07.606Z,4.50
2022-11-04T14:41:14.799Z,4.50
2022-11-04T14:43:46.782Z,4.50
2022-11-04T14:46:20.597Z,4.30
2022-11-04T14:48:52.245Z,4.40
2022-11-04T14:51:29.096Z,4.40
2022-11-04T14:54:22.875Z,4.30
2022-11-04T14:56:49.592Z,4.30
2022-11-04T14:59:22.501Z,4.40
2022-11-04T15:01:52.247Z,4.40
2022-11-04T15:04:26.742Z,4.50
2022-11-04T15:07:01.639Z,4.60
2022-11-04T15:09:37.372Z,4.60
2022-11-04T15:12:28.576Z,4.70
2022-11-04T15:14:56.152Z,4.70
2022-11-04T15:17:27.327Z,4.70
2022-11-04T15:19:57.629Z,4.80
2022-11-04T15:22:24.513Z,4.70
2022-11-04T15:24:51.498Z,4.80
2022-11-04T15:27:22.112Z,4.70
2022-11-04T15:29:55.724Z,4.70
2022-11-04T15:32:23.508Z,4.70
2022-11-04T15:34:50.823Z,4.70
2022-11-04T15:37:17.909Z,4.70
2022-11-04T15:39:47.215Z,4.70
2022-11-04T15:42:45.718Z,4.70
2022-11-04T15:45:27.993Z,4.70
2022-11-04T15:48:27.764Z,4.60
2022-11-04T15:51:09.449Z,4.60
2022-11-04T15:53:48.116Z,4.60
2022-11-04T15:56:17.613Z,4.50
2022-11-04T15:58:45.318Z,4.50
2022-11-04T16:01:19.552Z,4.50
2022-11-04T16:04:01.000Z,4.50
2022-11-04T16:06:39.674Z,4.50
2022-11-04T16:09:20.260Z,4.50
2022-11-04T16:12:13.016Z,4.50
2022-11-04T16:14:46.662Z,4.40
2022-11-04T16:17:13.386Z,4.40
2022-11-04T16:19:40.106Z,4.40
2022-11-04T16:22:09.597Z,4.40
2022-11-04T16:24:39.667Z,4.40
2022-11-04T16:27:11.100Z,4.40
2022-11-04T16:29:39.838Z,4.40
2022-11-04T16:32:17.831Z,4.50
2022-11-04T16:34:49.934Z,4.50
2022-11-04T16:37:16.602Z,4.50
2022-11-04T16:39:45.770Z,4.50
2022-11-04T16:42:14.057Z,4.50
2022-11-04T16:44:45.963Z,4.50
2022-11-04T16:47:12.770Z,4.50
2022-11-04T16:49:39.448Z,4.50
2022-11-04T16:52:12.667Z,4.50
2022-11-04T16:54:39.358Z,4.50
2022-11-04T16:57:11.580Z,4.50
2022-11-04T16:59:38.451Z,4.50
2022-11-04T17:02:31.773Z,4.50
2022-11-04T17:04:58.639Z,4.50
2022-11-04T17:07:40.612Z,4.50
2022-11-04T17:10:21.847Z,4.50
2022-11-04T17:12:48.556Z,4.50
2022-11-04T17:15:16.352Z,4.50
2022-11-04T17:17:43.849Z,4.50
2022-11-04T17:20:12.300Z,4.50
2022-11-04T17:22:39.060Z,4.50
2022-11-04T17:25:22.171Z,4.50
2022-11-04T17:27:49.399Z,4.50
2022-11-04T17:30:17.843Z,4.50
2022-11-04T17:32:45.756Z,4.40
2022-11-04T17:35:13.259Z,4.50
2022-11-04T17:37:40.157Z,4.50
2022-11-04T17:40:08.221Z,4.40
2022-11-04T17:42:53.546Z,4.50
2022-11-04T17:45:20.225Z,4.50
2022-11-04T17:47:47.045Z,4.50
2022-11-04T17:50:13.840Z,4.40
2022-11-04T17:52:42.167Z,4.40
2022-11-04T17:55:15.337Z,4.50
2022-11-04T17:57:43.499Z,4.50
2022-11-04T18:00:11.066Z,4.50
2022-11-04T18:02:38.399Z,4.50
2022-11-04T18:05:05.773Z,4.50
2022-11-04T18:07:32.467Z,4.50
2022-11-04T18:09:59.216Z,4.50
2022-11-04T18:12:38.059Z,4.50
2022-11-04T18:15:07.556Z,4.50
2022-11-04T18:17:38.496Z,4.50
2022-11-04T18:20:10.723Z,4.50
2022-11-04T18:22:40.013Z,4.50
2022-11-04T18:25:07.312Z,4.50
2022-11-04T18:27:34.031Z,4.40
2022-11-04T18:30:00.742Z,4.40
2022-11-04T18:32:27.440Z,4.30
2022-11-04T18:34:54.331Z,4.20
2022-11-04T18:37:21.123Z,4.20
2022-11-04T18:39:47.806Z,4.20
2022-11-04T18:42:14.484Z,4.20
2022-11-04T18:44:41.364Z,4.10
2022-11-04T18:47:08.156Z,4.10
2022-11-04T18:49:34.856Z,4.10
2022-11-04T18:52:01.530Z,4.10
2022-11-04T18:54:28.267Z,4.10
2022-11-04T18:56:54.979Z,4.00
2022-11-04T18:59:21.920Z,4.10
2022-11-04T19:01:51.171Z,4.10
2022-11-04T19:04:18.455Z,4.10
2022-11-04T19:06:45.411Z,4.20
2022-11-04T19:12:20.205Z,4.20
2022-11-04T19:14:46.992Z,4.10
2022-11-04T19:17:13.912Z,4.10
2022-11-04T19:19:41.212Z,4.10
2022-11-04T19:22:08.863Z,4.20
2022-11-04T19:24:35.593Z,4.20
2022-11-04T19:27:02.260Z,4.10
2022-11-04T19:29:29.474Z,4.20
2022-11-04T19:31:56.530Z,4.20
2022-11-04T19:34:23.295Z,4.30
2022-11-04T19:36:49.994Z,4.30
2022-11-04T19:39:17.030Z,4.30
2022-11-04T19:42:02.406Z,4.30
2022-11-04T19:44:29.108Z,4.30
2022-11-04T19:46:55.807Z,4.40
2022-11-04T19:49:22.471Z,4.40
2022-11-04T19:51:49.195Z,4.40
2022-11-04T19:54:16.052Z,4.50
2022-11-04T19:56:42.728Z,4.50
2022-11-04T19:59:11.280Z,4.50
2022-11-04T20:01:38.287Z,4.50
2022-11-04T20:04:05.981Z,4.50
2022-11-04T20:06:35.145Z,4.50
2022-11-04T20:09:05.181Z,4.50
2022-11-04T20:11:33.241Z,4.50
2022-11-04T20:14:06.473Z,4.40
2022-11-04T20:16:39.136Z,4.40
2022-11-04T20:19:06.030Z,4.40
2022-11-04T20:21:35.934Z,4.40
2022-11-04T20:24:05.846Z,4.40
2022-11-04T20:26:34.231Z,4.40
2022-11-04T20:29:00.911Z,4.40
2022-11-04T20:31:29.659Z,4.50
2022-11-04T20:33:57.425Z,4.40
2022-11-04T20:36:28.677Z,4.40
2022-11-04T20:38:56.680Z,4.40
2022-11-04T20:41:23.425Z,4.40
2022-11-04T20:43:50.969Z,4.30
2022-11-04T20:46:20.360Z,4.30
2022-11-04T20:48:50.278Z,4.40
2022-11-04T20:51:22.641Z,4.40
2022-11-04T20:53:55.757Z,4.40
2022-11-04T20:56:24.613Z,4.40
2022-11-04T20:58:57.602Z,4.50
2022-11-04T21:01:28.730Z,4.40
2022-11-04T21:03:59.216Z,4.40
2022-11-04T21:06:26.176Z,4.40
2022-11-04T21:08:53.033Z,4.40
2022-11-04T21:11:20.094Z,4.40
2022-11-04T21:13:47.655Z,4.40
2022-11-04T21:16:16.697Z,4.40
2022-11-04T21:18:43.947Z,4.40
2022-11-04T21:21:14.054Z,4.40
2022-11-04T21:23:41.178Z,4.40
2022-11-04T21:26:09.597Z,4.40
2022-11-04T21:28:36.390Z,4.40
2022-11-04T21:31:08.959Z,4.40
2022-11-04T21:33:36.227Z,4.40
2022-11-04T21:36:05.104Z,4.40
2022-11-04T21:38:32.239Z,4.40
2022-11-04T21:41:04.300Z,4.40
2022-11-04T21:43:31.200Z,4.30
2022-11-04T21:46:08.004Z,4.30
2022-11-04T21:48:36.501Z,4.30
2022-11-04T21:51:06.212Z,4.20
2022-11-04T21:53:33.725Z,4.20
2022-11-04T21:56:21.170Z,4.20
2022-11-04T21:58:47.856Z,4.10
2022-11-04T22:01:19.650Z,4.10
2022-11-04T22:03:51.141Z,4.10
2022-11-04T22:06:18.263Z,4.10
2022-11-04T22:08:49.209Z,4.10
2022-11-04T22:11:19.252Z,4.10
2022-11-04T22:13:46.254Z,4.10
2022-11-04T22:16:15.352Z,4.10
2022-11-04T22:18:42.540Z,4.10
2022-11-04T22:21:13.136Z,4.10
2022-11-04T22:23:40.431Z,4.20
2022-11-04T22:26:11.261Z,4.20
2022-11-04T22:28:37.967Z,4.20
2022-11-04T22:31:12.634Z,4.20
2022-11-04T22:33:39.512Z,4.20
2022-11-04T22:36:06.796Z,4.20
2022-11-04T22:38:33.855Z,4.20
2022-11-04T22:41:01.808Z,4.10
2022-11-04T22:43:28.987Z,4.10
2022-11-04T22:45:56.955Z,4.10
2022-11-04T22:48:23.899Z,4.30
2022-11-04T22:50:55.570Z,4.10
2022-11-04T22:53:22.283Z,4.10
2022-11-04T22:55:48.975Z,4.10
2022-11-04T22:58:16.006Z,4.10
2022-11-04T23:00:42.882Z,4.10
2022-11-04T23:03:10.090Z,4.10
2022-11-04T23:05:36.977Z,4.10
2022-11-04T23:08:03.754Z,4.10
2022-11-04T23:10:49.402Z,4.10
2022-11-04T23:13:34.867Z,4.10
2022-11-04T23:16:20.834Z,4.10
2022-11-04T23:18:51.670Z,4.20
2022-11-04T23:21:39.438Z,4.20
2022-11-04T23:24:24.785Z,4.20
2022-11-04T23:26:51.546Z,4.20
2022-11-04T23:29:37.111Z,4.20
2022-11-04T23:32:04.108Z,4.20
2022-11-04T23:34:49.456Z,4.20
2022-11-04T23:37:16.239Z,4.20
2022-11-04T23:39:45.368Z,4.10
2022-11-04T23:42:18.353Z,4.10
2022-11-04T23:45:04.677Z,4.00
2022-11-04T23:47:52.183Z,4.00
2022-11-04T23:50:37.792Z,4.00
2022-11-04T23:53:23.744Z,3.90
2022-11-04T23:56:10.049Z,3.90
2022-11-04T23:58:55.523Z,4.00
